sensor_id;sensor_type;location;lat;lon;timestamp;P1;durP1;ratioP1;P2;durP2;ratioP2
34573;SDS011;20809;49.594;8.734;2022-08-25T00:02:50;4.43;;;2.25;;
34573;SDS011;20809;49.594;8.734;2022-08-25T00:05:54;3.50;;;1.85;;
34573;SDS011;20809;49.594;8.734;2022-08-25T00:08:54;2.20;;;2.00;;
34573;SDS011;20809;49.594;8.734;2022-08-25T00:11:58;3.53;;;1.88;;
34573;SDS011;20809;49.594;8.734;2022-08-25T00:15:00;4.13;;;2.22;;
34573;SDS011;20809;49.594;8.734;2022-08-25T00:18:00;2.05;;;1.85;;
34573;SDS011;20809;49.594;8.734;2022-08-25T00:21:02;2.38;;;2.15;;
34573;SDS011;20809;49.594;8.734;2022-08-25T00:24:03;2.35;;;2.15;;
34573;SDS011;20809;49.594;8.734;2022-08-25T00:27:04;4.28;;;2.10;;
34573;SDS011;20809;49.594;8.734;2022-08-25T00:30:05;3.72;;;2.08;;
34573;SDS011;20809;49.594;8.734;2022-08-25T00:33:07;2.08;;;1.88;;
34573;SDS011;20809;49.594;8.734;2022-08-25T00:36:08;3.17;;;2.30;;
34573;SDS011;20809;49.594;8.734;2022-08-25T00:39:11;2.50;;;1.90;;
34573;SDS011;20809;49.594;8.734;2022-08-25T00:45:13;2.77;;;2.30;;
34573;SDS011;20809;49.594;8.734;2022-08-25T00:48:14;2.65;;;2.33;;
34573;SDS011;20809;49.594;8.734;2022-08-25T00:51:16;5.20;;;2.80;;
34573;SDS011;20809;49.594;8.734;2022-08-25T00:54:23;3.10;;;2.55;;
34573;SDS011;20809;49.594;8.734;2022-08-25T00:59:07;3.55;;;2.25;;
34573;SDS011;20809;49.594;8.734;2022-08-25T01:02:08;3.50;;;2.95;;
34573;SDS011;20809;49.594;8.734;2022-08-25T01:05:09;6.28;;;2.13;;
34573;SDS011;20809;49.594;8.734;2022-08-25T01:08:11;2.97;;;2.47;;
34573;SDS011;20809;49.594;8.734;2022-08-25T01:11:13;4.95;;;2.88;;
34573;SDS011;20809;49.594;8.734;2022-08-25T01:14:15;4.95;;;3.45;;
34573;SDS011;20809;49.594;8.734;2022-08-25T01:17:18;3.08;;;2.78;;
34573;SDS011;20809;49.594;8.734;2022-08-25T01:20:22;3.10;;;2.40;;
34573;SDS011;20809;49.594;8.734;2022-08-25T01:23:24;4.38;;;2.72;;
34573;SDS011;20809;49.594;8.734;2022-08-25T01:29:28;4.28;;;2.53;;
34573;SDS011;20809;49.594;8.734;2022-08-25T01:32:37;3.10;;;2.70;;
34573;SDS011;20809;49.594;8.734;2022-08-25T01:35:38;3.30;;;2.63;;
34573;SDS011;20809;49.594;8.734;2022-08-25T01:38:39;3.78;;;3.28;;
34573;SDS011;20809;49.594;8.734;2022-08-25T01:45:03;3.50;;;3.20;;
34573;SDS011;20809;49.594;8.734;2022-08-25T01:48:05;3.53;;;3.22;;
34573;SDS011;20809;49.594;8.734;2022-08-25T01:51:06;4.30;;;3.30;;
34573;SDS011;20809;49.594;8.734;2022-08-25T01:54:07;3.83;;;3.47;;
34573;SDS011;20809;49.594;8.734;2022-08-25T01:57:08;6.88;;;3.80;;
34573;SDS011;20809;49.594;8.734;2022-08-25T02:00:09;4.82;;;4.18;;
34573;SDS011;20809;49.594;8.734;2022-08-25T02:03:12;6.47;;;3.60;;
34573;SDS011;20809;49.594;8.734;2022-08-25T02:06:13;5.85;;;4.82;;
34573;SDS011;20809;49.594;8.734;2022-08-25T02:09:16;4.93;;;3.85;;
34573;SDS011;20809;49.594;8.734;2022-08-25T02:15:18;3.10;;;2.80;;
34573;SDS011;20809;49.594;8.734;2022-08-25T02:18:19;6.32;;;3.72;;
34573;SDS011;20809;49.594;8.734;2022-08-25T02:21:19;5.45;;;3.85;;
34573;SDS011;20809;49.594;8.734;2022-08-25T02:24:20;7.03;;;4.35;;
34573;SDS011;20809;49.594;8.734;2022-08-25T02:27:21;4.18;;;3.78;;
34573;SDS011;20809;49.594;8.734;2022-08-25T02:30:22;5.25;;;4.15;;
34573;SDS011;20809;49.594;8.734;2022-08-25T02:33:23;4.38;;;3.97;;
34573;SDS011;20809;49.594;8.734;2022-08-25T02:36:24;4.15;;;3.75;;
34573;SDS011;20809;49.594;8.734;2022-08-25T02:39:25;5.20;;;3.95;;
34573;SDS011;20809;49.594;8.734;2022-08-25T02:42:26;5.05;;;3.97;;
34573;SDS011;20809;49.594;8.734;2022-08-25T02:45:27;4.63;;;3.83;;
34573;SDS011;20809;49.594;8.734;2022-08-25T02:48:27;4.75;;;4.25;;
34573;SDS011;20809;49.594;8.734;2022-08-25T02:51:28;4.88;;;3.55;;
34573;SDS011;20809;49.594;8.734;2022-08-25T02:54:29;4.88;;;3.85;;
34573;SDS011;20809;49.594;8.734;2022-08-25T02:57:30;4.20;;;3.80;;
34573;SDS011;20809;49.594;8.734;2022-08-25T03:00:31;4.15;;;3.75;;
34573;SDS011;20809;49.594;8.734;2022-08-25T03:03:31;5.13;;;4.33;;
34573;SDS011;20809;49.594;8.734;2022-08-25T03:06:32;5.07;;;4.15;;
34573;SDS011;20809;49.594;8.734;2022-08-25T03:09:33;5.28;;;4.43;;
34573;SDS011;20809;49.594;8.734;2022-08-25T03:12:34;7.25;;;4.22;;
34573;SDS011;20809;49.594;8.734;2022-08-25T03:15:34;5.47;;;3.90;;
34573;SDS011;20809;49.594;8.734;2022-08-25T03:18:37;5.93;;;4.07;;
34573;SDS011;20809;49.594;8.734;2022-08-25T03:21:39;4.82;;;3.97;;
34573;SDS011;20809;49.594;8.734;2022-08-25T03:24:40;7.82;;;5.25;;
34573;SDS011;20809;49.594;8.734;2022-08-25T03:27:41;4.38;;;3.97;;
34573;SDS011;20809;49.594;8.734;2022-08-25T03:30:41;4.97;;;4.15;;
34573;SDS011;20809;49.594;8.734;2022-08-25T03:33:43;5.78;;;4.28;;
34573;SDS011;20809;49.594;8.734;2022-08-25T03:36:45;4.57;;;3.72;;
34573;SDS011;20809;49.594;8.734;2022-08-25T03:39:46;4.15;;;3.75;;
34573;SDS011;20809;49.594;8.734;2022-08-25T03:42:48;4.80;;;4.28;;
34573;SDS011;20809;49.594;8.734;2022-08-25T03:45:49;4.88;;;4.38;;
34573;SDS011;20809;49.594;8.734;2022-08-25T03:48:51;4.57;;;4.18;;
34573;SDS011;20809;49.594;8.734;2022-08-25T03:51:52;5.35;;;4.82;;
34573;SDS011;20809;49.594;8.734;2022-08-25T03:54:53;6.00;;;4.20;;
34573;SDS011;20809;49.594;8.734;2022-08-25T03:57:54;5.35;;;4.38;;
34573;SDS011;20809;49.594;8.734;2022-08-25T04:00:55;5.40;;;4.55;;
34573;SDS011;20809;49.594;8.734;2022-08-25T04:03:59;6.32;;;4.53;;
34573;SDS011;20809;49.594;8.734;2022-08-25T04:06:59;6.82;;;4.40;;
34573;SDS011;20809;49.594;8.734;2022-08-25T04:10:01;6.10;;;4.75;;
34573;SDS011;20809;49.594;8.734;2022-08-25T04:13:02;5.20;;;4.53;;
34573;SDS011;20809;49.594;8.734;2022-08-25T04:16:08;5.43;;;4.25;;
34573;SDS011;20809;49.594;8.734;2022-08-25T04:19:11;7.90;;;4.70;;
34573;SDS011;20809;49.594;8.734;2022-08-25T04:22:12;8.30;;;5.70;;
34573;SDS011;20809;49.594;8.734;2022-08-25T04:25:13;6.10;;;4.68;;
34573;SDS011;20809;49.594;8.734;2022-08-25T04:28:13;6.07;;;4.50;;
34573;SDS011;20809;49.594;8.734;2022-08-25T04:31:14;4.70;;;4.20;;
34573;SDS011;20809;49.594;8.734;2022-08-25T04:34:17;5.25;;;4.60;;
34573;SDS011;20809;49.594;8.734;2022-08-25T04:37:19;6.05;;;4.88;;
34573;SDS011;20809;49.594;8.734;2022-08-25T04:40:20;5.63;;;4.88;;
34573;SDS011;20809;49.594;8.734;2022-08-25T04:43:20;7.13;;;4.65;;
34573;SDS011;20809;49.594;8.734;2022-08-25T04:46:22;9.80;;;5.68;;
34573;SDS011;20809;49.594;8.734;2022-08-25T04:49:24;4.80;;;4.30;;
34573;SDS011;20809;49.594;8.734;2022-08-25T04:52:25;6.40;;;4.90;;
34573;SDS011;20809;49.594;8.734;2022-08-25T04:55:26;5.60;;;4.57;;
34573;SDS011;20809;49.594;8.734;2022-08-25T04:58:27;5.45;;;4.93;;
34573;SDS011;20809;49.594;8.734;2022-08-25T05:01:28;7.25;;;5.82;;
34573;SDS011;20809;49.594;8.734;2022-08-25T05:04:29;5.70;;;5.03;;
34573;SDS011;20809;49.594;8.734;2022-08-25T05:07:31;6.72;;;5.40;;
34573;SDS011;20809;49.594;8.734;2022-08-25T05:10:32;6.90;;;5.15;;
34573;SDS011;20809;49.594;8.734;2022-08-25T05:13:33;5.22;;;4.72;;
34573;SDS011;20809;49.594;8.734;2022-08-25T05:16:34;6.40;;;5.22;;
34573;SDS011;20809;49.594;8.734;2022-08-25T05:19:34;8.37;;;4.93;;
34573;SDS011;20809;49.594;8.734;2022-08-25T05:22:35;5.10;;;4.57;;
34573;SDS011;20809;49.594;8.734;2022-08-25T05:25:36;6.25;;;4.95;;
34573;SDS011;20809;49.594;8.734;2022-08-25T05:28:38;5.45;;;4.63;;
34573;SDS011;20809;49.594;8.734;2022-08-25T05:31:40;6.35;;;5.03;;
34573;SDS011;20809;49.594;8.734;2022-08-25T05:34:43;6.00;;;5.40;;
34573;SDS011;20809;49.594;8.734;2022-08-25T05:37:43;5.82;;;5.22;;
34573;SDS011;20809;49.594;8.734;2022-08-25T05:40:44;5.50;;;4.60;;
34573;SDS011;20809;49.594;8.734;2022-08-25T05:43:46;7.88;;;4.85;;
34573;SDS011;20809;49.594;8.734;2022-08-25T05:46:48;6.45;;;5.05;;
34573;SDS011;20809;49.594;8.734;2022-08-25T05:49:50;6.25;;;5.35;;
34573;SDS011;20809;49.594;8.734;2022-08-25T05:52:50;9.43;;;5.30;;
34573;SDS011;20809;49.594;8.734;2022-08-25T05:55:51;6.32;;;5.07;;
34573;SDS011;20809;49.594;8.734;2022-08-25T05:58:53;6.13;;;5.20;;
34573;SDS011;20809;49.594;8.734;2022-08-25T06:01:54;7.78;;;4.65;;
34573;SDS011;20809;49.594;8.734;2022-08-25T06:05:15;4.57;;;4.00;;
34573;SDS011;20809;49.594;8.734;2022-08-25T06:08:17;5.93;;;4.47;;
34573;SDS011;20809;49.594;8.734;2022-08-25T06:11:18;5.25;;;4.78;;
34573;SDS011;20809;49.594;8.734;2022-08-25T06:14:19;5.38;;;4.88;;
34573;SDS011;20809;49.594;8.734;2022-08-25T06:17:20;5.38;;;4.88;;
34573;SDS011;20809;49.594;8.734;2022-08-25T06:26:23;5.30;;;4.80;;
34573;SDS011;20809;49.594;8.734;2022-08-25T06:29:24;4.85;;;4.45;;
34573;SDS011;20809;49.594;8.734;2022-08-25T06:35:26;8.47;;;4.73;;
34573;SDS011;20809;49.594;8.734;2022-08-25T06:41:27;5.55;;;4.60;;
34573;SDS011;20809;49.594;8.734;2022-08-25T06:44:29;6.75;;;4.90;;
34573;SDS011;20809;49.594;8.734;2022-08-25T06:50:30;6.50;;;4.90;;
34573;SDS011;20809;49.594;8.734;2022-08-25T06:53:31;4.60;;;4.20;;
34573;SDS011;20809;49.594;8.734;2022-08-25T06:59:33;6.32;;;4.40;;
34573;SDS011;20809;49.594;8.734;2022-08-25T07:02:34;6.95;;;4.70;;
34573;SDS011;20809;49.594;8.734;2022-08-25T07:05:37;4.85;;;4.32;;
34573;SDS011;20809;49.594;8.734;2022-08-25T07:11:39;4.63;;;4.23;;
34573;SDS011;20809;49.594;8.734;2022-08-25T07:14:41;5.18;;;4.38;;
34573;SDS011;20809;49.594;8.734;2022-08-25T07:17:42;5.15;;;4.75;;
34573;SDS011;20809;49.594;8.734;2022-08-25T07:23:44;5.27;;;4.77;;
34573;SDS011;20809;49.594;8.734;2022-08-25T07:29:45;10.10;;;4.70;;
34573;SDS011;20809;49.594;8.734;2022-08-25T07:32:49;4.75;;;4.22;;
34573;SDS011;20809;49.594;8.734;2022-08-25T07:35:49;5.13;;;4.72;;
34573;SDS011;20809;49.594;8.734;2022-08-25T07:38:50;5.00;;;4.47;;
34573;SDS011;20809;49.594;8.734;2022-08-25T07:44:52;6.80;;;4.47;;
34573;SDS011;20809;49.594;8.734;2022-08-25T07:47:53;5.30;;;4.57;;
34573;SDS011;20809;49.594;8.734;2022-08-25T07:50:54;5.25;;;4.85;;
34573;SDS011;20809;49.594;8.734;2022-08-25T07:53:55;5.95;;;4.93;;
34573;SDS011;20809;49.594;8.734;2022-08-25T07:56:55;6.28;;;4.90;;
34573;SDS011;20809;49.594;8.734;2022-08-25T07:59:56;4.75;;;4.35;;
34573;SDS011;20809;49.594;8.734;2022-08-25T08:03:04;5.15;;;3.95;;
34573;SDS011;20809;49.594;8.734;2022-08-25T08:06:07;4.28;;;3.88;;
34573;SDS011;20809;49.594;8.734;2022-08-25T08:09:10;6.13;;;4.65;;
34573;SDS011;20809;49.594;8.734;2022-08-25T08:12:12;5.63;;;5.13;;
34573;SDS011;20809;49.594;8.734;2022-08-25T08:15:13;5.50;;;5.10;;
34573;SDS011;20809;49.594;8.734;2022-08-25T08:21:25;5.45;;;4.32;;
34573;SDS011;20809;49.594;8.734;2022-08-25T08:24:30;5.63;;;4.63;;
34573;SDS011;20809;49.594;8.734;2022-08-25T08:27:33;4.60;;;4.20;;
34573;SDS011;20809;49.594;8.734;2022-08-25T08:30:34;4.45;;;4.05;;
34573;SDS011;20809;49.594;8.734;2022-08-25T08:33:35;4.95;;;4.53;;
34573;SDS011;20809;49.594;8.734;2022-08-25T08:36:36;4.68;;;4.18;;
34573;SDS011;20809;49.594;8.734;2022-08-25T08:39:37;4.88;;;3.97;;
34573;SDS011;20809;49.594;8.734;2022-08-25T08:45:51;6.90;;;4.07;;
34573;SDS011;20809;49.594;8.734;2022-08-25T08:51:55;4.05;;;3.75;;
34573;SDS011;20809;49.594;8.734;2022-08-25T08:55:00;7.10;;;3.90;;
34573;SDS011;20809;49.594;8.734;2022-08-25T08:58:16;4.22;;;3.83;;
34573;SDS011;20809;49.594;8.734;2022-08-25T09:01:25;3.67;;;3.35;;
34573;SDS011;20809;49.594;8.734;2022-08-25T09:07:51;5.53;;;4.18;;
34573;SDS011;20809;49.594;8.734;2022-08-25T09:11:00;5.38;;;4.07;;
34573;SDS011;20809;49.594;8.734;2022-08-25T09:22:14;4.38;;;3.97;;
34573;SDS011;20809;49.594;8.734;2022-08-25T09:31:33;5.20;;;4.05;;
34573;SDS011;20809;49.594;8.734;2022-08-25T09:34:37;4.40;;;4.00;;
34573;SDS011;20809;49.594;8.734;2022-08-25T09:37:38;4.72;;;3.88;;
34573;SDS011;20809;49.594;8.734;2022-08-25T09:43:51;4.07;;;3.67;;
34573;SDS011;20809;49.594;8.734;2022-08-25T09:46:53;4.32;;;3.90;;
34573;SDS011;20809;49.594;8.734;2022-08-25T09:50:03;4.32;;;3.95;;
34573;SDS011;20809;49.594;8.734;2022-08-25T09:53:11;5.43;;;3.42;;
34573;SDS011;20809;49.594;8.734;2022-08-25T09:56:15;4.20;;;3.80;;
34573;SDS011;20809;49.594;8.734;2022-08-25T09:59:30;3.92;;;3.63;;
34573;SDS011;20809;49.594;8.734;2022-08-25T10:02:33;3.47;;;3.28;;
34573;SDS011;20809;49.594;8.734;2022-08-25T10:05:36;4.75;;;4.45;;
34573;SDS011;20809;49.594;8.734;2022-08-25T10:11:47;3.55;;;3.25;;
34573;SDS011;20809;49.594;8.734;2022-08-25T10:14:48;4.95;;;3.35;;
34573;SDS011;20809;49.594;8.734;2022-08-25T10:17:50;4.10;;;2.80;;
34573;SDS011;20809;49.594;8.734;2022-08-25T10:24:14;3.03;;;2.80;;
34573;SDS011;20809;49.594;8.734;2022-08-25T10:40:43;3.55;;;3.22;;
34573;SDS011;20809;49.594;8.734;2022-08-25T10:54:15;3.47;;;3.17;;
34573;SDS011;20809;49.594;8.734;2022-08-25T10:57:40;5.07;;;3.47;;
34573;SDS011;20809;49.594;8.734;2022-08-25T11:00:46;3.53;;;3.22;;
34573;SDS011;20809;49.594;8.734;2022-08-25T11:04:14;4.00;;;3.60;;
34573;SDS011;20809;49.594;8.734;2022-08-25T11:07:32;3.25;;;3.00;;
34573;SDS011;20809;49.594;8.734;2022-08-25T11:10:42;3.30;;;3.08;;
34573;SDS011;20809;49.594;8.734;2022-08-25T11:20:16;3.67;;;3.38;;
34573;SDS011;20809;49.594;8.734;2022-08-25T11:23:34;3.13;;;2.92;;
34573;SDS011;20809;49.594;8.734;2022-08-25T11:26:36;5.38;;;3.00;;
34573;SDS011;20809;49.594;8.734;2022-08-25T11:29:47;3.35;;;3.05;;
34573;SDS011;20809;49.594;8.734;2022-08-25T11:33:01;5.70;;;3.00;;
34573;SDS011;20809;49.594;8.734;2022-08-25T11:36:04;3.00;;;2.80;;
34573;SDS011;20809;49.594;8.734;2022-08-25T11:42:51;4.45;;;4.05;;
34573;SDS011;20809;49.594;8.734;2022-08-25T11:49:57;3.58;;;3.28;;
34573;SDS011;20809;49.594;8.734;2022-08-25T11:53:01;3.05;;;2.78;;
34573;SDS011;20809;49.594;8.734;2022-08-25T11:56:31;3.10;;;2.90;;
34573;SDS011;20809;49.594;8.734;2022-08-25T12:02:51;3.17;;;2.97;;
34573;SDS011;20809;49.594;8.734;2022-08-25T12:06:12;3.55;;;3.25;;
34573;SDS011;20809;49.594;8.734;2022-08-25T12:09:15;3.40;;;3.08;;
34573;SDS011;20809;49.594;8.734;2022-08-25T12:18:43;3.55;;;3.30;;
34573;SDS011;20809;49.594;8.734;2022-08-25T12:21:45;4.10;;;3.80;;
34573;SDS011;20809;49.594;8.734;2022-08-25T12:28:09;3.78;;;3.30;;
34573;SDS011;20809;49.594;8.734;2022-08-25T12:34:51;3.38;;;3.08;;
34573;SDS011;20809;49.594;8.734;2022-08-25T12:41:08;4.30;;;3.80;;
34573;SDS011;20809;49.594;8.734;2022-08-25T12:47:35;3.80;;;3.50;;
34573;SDS011;20809;49.594;8.734;2022-08-25T12:50:43;3.55;;;3.25;;
34573;SDS011;20809;49.594;8.734;2022-08-25T12:53:48;3.60;;;3.30;;
34573;SDS011;20809;49.594;8.734;2022-08-25T12:56:59;4.00;;;3.70;;
34573;SDS011;20809;49.594;8.734;2022-08-25T13:00:09;5.68;;;3.30;;
34573;SDS011;20809;49.594;8.734;2022-08-25T13:03:32;3.92;;;3.30;;
34573;SDS011;20809;49.594;8.734;2022-08-25T13:10:23;5.22;;;3.50;;
34573;SDS011;20809;49.594;8.734;2022-08-25T13:13:46;3.40;;;3.08;;
34573;SDS011;20809;49.594;8.734;2022-08-25T13:16:58;3.30;;;3.10;;
34573;SDS011;20809;49.594;8.734;2022-08-25T13:23:30;3.03;;;2.75;;
34573;SDS011;20809;49.594;8.734;2022-08-25T13:26:39;5.38;;;3.35;;
34573;SDS011;20809;49.594;8.734;2022-08-25T13:29:52;4.13;;;2.80;;
34573;SDS011;20809;49.594;8.734;2022-08-25T13:32:56;3.40;;;3.10;;
34573;SDS011;20809;49.594;8.734;2022-08-25T13:35:57;3.58;;;3.22;;
34573;SDS011;20809;49.594;8.734;2022-08-25T13:39:18;3.03;;;2.83;;
34573;SDS011;20809;49.594;8.734;2022-08-25T13:42:23;3.30;;;3.10;;
34573;SDS011;20809;49.594;8.734;2022-08-25T13:45:26;4.50;;;3.20;;
34573;SDS011;20809;49.594;8.734;2022-08-25T13:48:35;2.90;;;2.67;;
34573;SDS011;20809;49.594;8.734;2022-08-25T13:51:38;3.50;;;3.20;;
34573;SDS011;20809;49.594;8.734;2022-08-25T13:54:50;5.32;;;3.28;;
34573;SDS011;20809;49.594;8.734;2022-08-25T13:57:56;4.75;;;4.43;;
34573;SDS011;20809;49.594;8.734;2022-08-25T14:04:19;3.28;;;3.08;;
34573;SDS011;20809;49.594;8.734;2022-08-25T14:13:33;3.72;;;3.42;;
34573;SDS011;20809;49.594;8.734;2022-08-25T14:16:36;3.75;;;3.50;;
34573;SDS011;20809;49.594;8.734;2022-08-25T14:19:44;3.80;;;3.47;;
34573;SDS011;20809;49.594;8.734;2022-08-25T14:22:47;3.50;;;3.20;;
34573;SDS011;20809;49.594;8.734;2022-08-25T14:25:53;5.72;;;3.33;;
34573;SDS011;20809;49.594;8.734;2022-08-25T14:28:55;3.60;;;3.30;;
34573;SDS011;20809;49.594;8.734;2022-08-25T14:31:56;3.53;;;3.22;;
34573;SDS011;20809;49.594;8.734;2022-08-25T14:34:58;3.67;;;3.22;;
34573;SDS011;20809;49.594;8.734;2022-08-25T14:38:01;3.50;;;3.20;;
34573;SDS011;20809;49.594;8.734;2022-08-25T14:41:09;3.93;;;3.63;;
34573;SDS011;20809;49.594;8.734;2022-08-25T14:44:10;3.53;;;3.22;;
34573;SDS011;20809;49.594;8.734;2022-08-25T14:47:12;3.75;;;3.17;;
34573;SDS011;20809;49.594;8.734;2022-08-25T14:50:13;3.92;;;2.92;;
34573;SDS011;20809;49.594;8.734;2022-08-25T14:53:13;3.38;;;3.08;;
34573;SDS011;20809;49.594;8.734;2022-08-25T14:56:14;3.05;;;2.85;;
34573;SDS011;20809;49.594;8.734;2022-08-25T14:59:15;4.15;;;3.00;;
34573;SDS011;20809;49.594;8.734;2022-08-25T15:02:17;3.75;;;3.38;;
34573;SDS011;20809;49.594;8.734;2022-08-25T15:05:22;5.38;;;3.47;;
34573;SDS011;20809;49.594;8.734;2022-08-25T15:08:26;2.92;;;2.70;;
34573;SDS011;20809;49.594;8.734;2022-08-25T15:11:49;3.30;;;3.10;;
34573;SDS011;20809;49.594;8.734;2022-08-25T15:14:52;3.33;;;3.03;;
34573;SDS011;20809;49.594;8.734;2022-08-25T15:17:54;3.33;;;3.13;;
34573;SDS011;20809;49.594;8.734;2022-08-25T15:20:55;3.55;;;3.25;;
34573;SDS011;20809;49.594;8.734;2022-08-25T15:23:56;3.60;;;3.30;;
34573;SDS011;20809;49.594;8.734;2022-08-25T15:26:58;3.30;;;3.10;;
34573;SDS011;20809;49.594;8.734;2022-08-25T15:30:00;3.72;;;3.13;;
34573;SDS011;20809;49.594;8.734;2022-08-25T15:33:00;3.35;;;3.15;;
34573;SDS011;20809;49.594;8.734;2022-08-25T15:36:01;3.72;;;3.42;;
34573;SDS011;20809;49.594;8.734;2022-08-25T15:39:02;3.78;;;3.47;;
34573;SDS011;20809;49.594;8.734;2022-08-25T15:42:04;3.60;;;2.75;;
34573;SDS011;20809;49.594;8.734;2022-08-25T15:45:05;3.92;;;3.63;;
34573;SDS011;20809;49.594;8.734;2022-08-25T15:48:06;3.55;;;3.25;;
34573;SDS011;20809;49.594;8.734;2022-08-25T15:51:07;3.95;;;3.30;;
34573;SDS011;20809;49.594;8.734;2022-08-25T15:54:08;2.95;;;2.75;;
34573;SDS011;20809;49.594;8.734;2022-08-25T15:57:08;3.70;;;3.40;;
34573;SDS011;20809;49.594;8.734;2022-08-25T16:00:09;3.28;;;3.00;;
34573;SDS011;20809;49.594;8.734;2022-08-25T16:03:11;5.15;;;2.97;;
34573;SDS011;20809;49.594;8.734;2022-08-25T16:06:12;3.53;;;3.22;;
34573;SDS011;20809;49.594;8.734;2022-08-25T16:09:13;4.03;;;2.97;;
34573;SDS011;20809;49.594;8.734;2022-08-25T16:12:13;3.50;;;3.28;;
34573;SDS011;20809;49.594;8.734;2022-08-25T16:15:14;3.78;;;3.47;;
34573;SDS011;20809;49.594;8.734;2022-08-25T16:18:15;3.30;;;3.00;;
34573;SDS011;20809;49.594;8.734;2022-08-25T16:21:18;4.60;;;3.20;;
34573;SDS011;20809;49.594;8.734;2022-08-25T16:24:23;5.95;;;3.35;;
34573;SDS011;20809;49.594;8.734;2022-08-25T16:27:24;3.45;;;3.15;;
34573;SDS011;20809;49.594;8.734;2022-08-25T16:30:24;3.30;;;3.03;;
34573;SDS011;20809;49.594;8.734;2022-08-25T16:33:25;3.40;;;3.10;;
34573;SDS011;20809;49.594;8.734;2022-08-25T16:36:26;4.20;;;3.10;;
34573;SDS011;20809;49.594;8.734;2022-08-25T16:39:27;3.55;;;3.25;;
34573;SDS011;20809;49.594;8.734;2022-08-25T16:42:27;3.33;;;2.97;;
34573;SDS011;20809;49.594;8.734;2022-08-25T16:45:28;3.78;;;3.47;;
34573;SDS011;20809;49.594;8.734;2022-08-25T16:48:29;4.88;;;3.05;;
34573;SDS011;20809;49.594;8.734;2022-08-25T16:51:30;3.15;;;2.92;;
34573;SDS011;20809;49.594;8.734;2022-08-25T16:54:31;3.20;;;2.90;;
34573;SDS011;20809;49.594;8.734;2022-08-25T16:57:51;2.78;;;2.58;;
34573;SDS011;20809;49.594;8.734;2022-08-25T17:00:53;2.75;;;2.55;;
34573;SDS011;20809;49.594;8.734;2022-08-25T17:03:54;5.22;;;3.33;;
34573;SDS011;20809;49.594;8.734;2022-08-25T17:06:56;3.08;;;2.55;;
34573;SDS011;20809;49.594;8.734;2022-08-25T17:09:57;2.38;;;2.28;;
34573;SDS011;20809;49.594;8.734;2022-08-25T17:12:58;2.83;;;2.63;;
34573;SDS011;20809;49.594;8.734;2022-08-25T17:15:59;9.82;;;2.97;;
34573;SDS011;20809;49.594;8.734;2022-08-25T17:19:02;3.53;;;3.33;;
34573;SDS011;20809;49.594;8.734;2022-08-25T17:22:05;3.00;;;2.80;;
34573;SDS011;20809;49.594;8.734;2022-08-25T17:25:07;4.72;;;3.40;;
34573;SDS011;20809;49.594;8.734;2022-08-25T17:28:07;2.72;;;2.53;;
34573;SDS011;20809;49.594;8.734;2022-08-25T17:31:09;2.85;;;2.65;;
34573;SDS011;20809;49.594;8.734;2022-08-25T17:34:11;4.20;;;3.17;;
34573;SDS011;20809;49.594;8.734;2022-08-25T17:37:13;3.15;;;2.80;;
34573;SDS011;20809;49.594;8.734;2022-08-25T17:40:14;3.78;;;3.03;;
34573;SDS011;20809;49.594;8.734;2022-08-25T17:43:15;5.50;;;2.65;;
34573;SDS011;20809;49.594;8.734;2022-08-25T17:46:15;3.97;;;2.75;;
34573;SDS011;20809;49.594;8.734;2022-08-25T17:49:16;4.28;;;3.97;;
34573;SDS011;20809;49.594;8.734;2022-08-25T17:52:17;3.17;;;2.97;;
34573;SDS011;20809;49.594;8.734;2022-08-25T17:55:19;4.65;;;3.15;;
34573;SDS011;20809;49.594;8.734;2022-08-25T17:58:23;3.58;;;2.80;;
34573;SDS011;20809;49.594;8.734;2022-08-25T18:01:28;4.15;;;2.92;;
34573;SDS011;20809;49.594;8.734;2022-08-25T18:04:30;3.17;;;2.88;;
34573;SDS011;20809;49.594;8.734;2022-08-25T18:10:32;5.20;;;3.35;;
34573;SDS011;20809;49.594;8.734;2022-08-25T18:13:33;4.00;;;2.72;;
34573;SDS011;20809;49.594;8.734;2022-08-25T18:16:34;4.00;;;2.88;;
34573;SDS011;20809;49.594;8.734;2022-08-25T18:22:37;3.50;;;2.83;;
34573;SDS011;20809;49.594;8.734;2022-08-25T18:25:40;3.45;;;2.97;;
34573;SDS011;20809;49.594;8.734;2022-08-25T18:28:42;3.22;;;2.92;;
34573;SDS011;20809;49.594;8.734;2022-08-25T18:34:43;7.33;;;2.63;;
34573;SDS011;20809;49.594;8.734;2022-08-25T18:41:04;4.03;;;3.03;;
34573;SDS011;20809;49.594;8.734;2022-08-25T18:44:07;4.70;;;3.35;;
34573;SDS011;20809;49.594;8.734;2022-08-25T18:47:09;8.40;;;3.38;;
34573;SDS011;20809;49.594;8.734;2022-08-25T18:53:11;3.67;;;3.37;;
34573;SDS011;20809;49.594;8.734;2022-08-25T18:56:12;3.90;;;2.80;;
34573;SDS011;20809;49.594;8.734;2022-08-25T19:02:14;4.27;;;3.37;;
34573;SDS011;20809;49.594;8.734;2022-08-25T19:05:15;5.00;;;3.20;;
34573;SDS011;20809;49.594;8.734;2022-08-25T19:08:19;3.38;;;2.97;;
34573;SDS011;20809;49.594;8.734;2022-08-25T19:11:20;6.28;;;3.47;;
34573;SDS011;20809;49.594;8.734;2022-08-25T19:17:22;4.97;;;4.03;;
34573;SDS011;20809;49.594;8.734;2022-08-25T19:20:23;3.90;;;3.22;;
34573;SDS011;20809;49.594;8.734;2022-08-25T19:23:24;4.13;;;3.72;;
34573;SDS011;20809;49.594;8.734;2022-08-25T19:26:25;5.38;;;3.72;;
34573;SDS011;20809;49.594;8.734;2022-08-25T19:29:26;3.38;;;3.08;;
34573;SDS011;20809;49.594;8.734;2022-08-25T19:32:28;3.40;;;3.10;;
34573;SDS011;20809;49.594;8.734;2022-08-25T19:35:31;5.95;;;4.72;;
34573;SDS011;20809;49.594;8.734;2022-08-25T19:38:37;3.47;;;3.10;;
34573;SDS011;20809;49.594;8.734;2022-08-25T19:41:38;4.28;;;3.47;;
34573;SDS011;20809;49.594;8.734;2022-08-25T19:44:40;5.55;;;3.72;;
34573;SDS011;20809;49.594;8.734;2022-08-25T19:47:41;4.43;;;3.65;;
34573;SDS011;20809;49.594;8.734;2022-08-25T19:50:42;6.95;;;4.25;;
34573;SDS011;20809;49.594;8.734;2022-08-25T19:53:43;3.85;;;3.45;;
34573;SDS011;20809;49.594;8.734;2022-08-25T19:56:43;4.88;;;3.55;;
34573;SDS011;20809;49.594;8.734;2022-08-25T19:59:45;3.45;;;3.15;;
34573;SDS011;20809;49.594;8.734;2022-08-25T20:02:46;4.13;;;3.83;;
34573;SDS011;20809;49.594;8.734;2022-08-25T20:05:47;5.78;;;3.60;;
34573;SDS011;20809;49.594;8.734;2022-08-25T20:08:48;4.18;;;3.78;;
34573;SDS011;20809;49.594;8.734;2022-08-25T20:11:49;4.18;;;3.78;;
34573;SDS011;20809;49.594;8.734;2022-08-25T20:17:51;4.85;;;3.45;;
34573;SDS011;20809;49.594;8.734;2022-08-25T20:20:52;4.05;;;3.30;;
34573;SDS011;20809;49.594;8.734;2022-08-25T20:23:53;4.10;;;3.70;;
34573;SDS011;20809;49.594;8.734;2022-08-25T20:27:12;4.00;;;3.55;;
34573;SDS011;20809;49.594;8.734;2022-08-25T20:30:23;3.92;;;3.40;;
34573;SDS011;20809;49.594;8.734;2022-08-25T20:33:26;3.80;;;3.50;;
34573;SDS011;20809;49.594;8.734;2022-08-25T20:36:27;4.18;;;3.60;;
34573;SDS011;20809;49.594;8.734;2022-08-25T20:39:27;6.47;;;3.90;;
34573;SDS011;20809;49.594;8.734;2022-08-25T20:42:28;6.22;;;4.13;;
34573;SDS011;20809;49.594;8.734;2022-08-25T20:45:29;7.00;;;4.07;;
34573;SDS011;20809;49.594;8.734;2022-08-25T20:48:30;4.47;;;3.70;;
34573;SDS011;20809;49.594;8.734;2022-08-25T20:51:53;3.75;;;3.45;;
34573;SDS011;20809;49.594;8.734;2022-08-25T20:54:53;6.38;;;3.67;;
34573;SDS011;20809;49.594;8.734;2022-08-25T20:57:54;4.65;;;4.20;;
34573;SDS011;20809;49.594;8.734;2022-08-25T21:00:54;5.03;;;3.75;;
34573;SDS011;20809;49.594;8.734;2022-08-25T21:03:55;3.88;;;3.58;;
34573;SDS011;20809;49.594;8.734;2022-08-25T21:07:14;5.70;;;4.25;;
34573;SDS011;20809;49.594;8.734;2022-08-25T21:14:05;6.82;;;4.75;;
34573;SDS011;20809;49.594;8.734;2022-08-25T21:17:07;4.78;;;4.13;;
34573;SDS011;20809;49.594;8.734;2022-08-25T21:20:10;3.72;;;3.28;;
34573;SDS011;20809;49.594;8.734;2022-08-25T21:23:11;3.78;;;3.45;;
34573;SDS011;20809;49.594;8.734;2022-08-25T21:26:20;5.13;;;4.05;;
34573;SDS011;20809;49.594;8.734;2022-08-25T21:29:28;6.30;;;4.10;;
34573;SDS011;20809;49.594;8.734;2022-08-25T21:32:29;4.53;;;3.80;;